Trout Lake, New York
Current Conditions -  °F | °C
As of 6:53 PM on Saturday 20 Dec 2014 (Local Time) from KGFL Reporting Station
Clear Clear  
Wind Chill: 21°   Ceiling: Unl
Heat Index: 21°   Visibility: 10mi
Dew Point: 15°   Wind: 0mph
Humidity: 78%   Direction: NA
Pressure: 30.31"   Gusts: NA
Location:  43.5383°N, 73.7083°W
Report Text: KGFL 202353Z AUTO 00000KT 10SM CLR M06/M09 A3031 RMK AO2 SLP274 T10611094 11017 21067 53006
Loading
Personal Weather Stations






























Interactive Weather Map New forecast layout! Learn more

10-Day Weather Forecast

Advertisements
Track Severe Weather on mobile